CheckWX is a tool to help pilots better visualize weather data.  It is not intended as a substitute for an official pre-flight weather briefing.

01:05:57 UTC

MMAS TAF
Jesus Teran International Airport
Aguascalientes, Mexico
TAF MMAS 231643Z 2318/2418 22015KT P6SM BKN100 OVC200 FM240100 22008KT P6SM BKN200 FM241700 22015KT P6SM SCT200

Feb-23@
18:00 UTC

Feb-23 @ 18:00 UTC

Feb-24@
01:00 UTC

Feb-24 @ 01:00 UTC

TAF MMAS 231643Z 2318/2418 22015KT P6SM BKN100 OVC200

Expired

Wind
  • 220° at 15 KTS
Cloud Levels
  • Broken at 10,000' AGL
  • Overcast at 20,000' AGL

Feb-24@
01:00 UTC

Feb-24 @ 01:00 UTC

Feb-24@
17:00 UTC

Feb-24 @ 17:00 UTC

FM240100 22008KT P6SM BKN200

From

From Standard forecast or significant change

Wind
  • 220° at 8 KTS
Cloud Levels
  • Broken at 20,000' AGL

Feb-24@
17:00 UTC

Feb-24 @ 17:00 UTC

Feb-24@
18:00 UTC

Feb-24 @ 18:00 UTC

FM241700 22015KT P6SM SCT200

From

From Standard forecast or significant change

Wind
  • 220° at 15 KTS
Cloud Levels
  • Scattered at 20,000' AGL